Terminal Aerodrome Forecast
Issued by NWS

Home | Current Version | Previous Version | Text Only | Print | Product List | Glossary On
Versions: 1 2 3 4 5 6 7 8 9 10 11 12 13 14 15 16 17 18 19 20 21 22 23 24 25 26 27 28 29 30 31
000
FTUS44 KFWD 192300
TAFAFW
TAF
KAFW 192320Z 2000/2024 12009KT P6SM SCT050
     FM201100 13006KT P6SM BKN025
     FM201300 15006KT 6SM BR OVC012
     FM201500 13007KT P6SM OVC022
     FM201800 14007KT P6SM BKN040=

USA.gov is the U.S. government's official web portal to all federal, state and local government web resources and services.